Hauptseite
METAR-TAF:

METAR-TAF

Flughäfen :

Ashtabula County Airport

Ashtabula, Ohio, Vereinigte Staaten

Breite: 41-46-46N, Länge: 080-41-48W, Höhe: 281 m

Beobachtung

Neuester Wetterbericht von vor 42 Minuten, um 07:53 UTC
Wind 3 kt aus Nord/Nordwest
Temperatur 9°C
Luftfeuchtigkeit 76%
Luftdruck 996 hPa
Sichtweite: 16.1 km
Leicht bewölkt in der Höhe von 5000 ft
Durchbrochene Bewölkung in der Höhe von 8000 ft

METAR: KHZY 090753Z AUTO 33003KT 10SM FEW050 BKN080 09/05 A2940 RMK AO2 SLP954 T00890050

Zeit: 04:35 (08:35 UTC)


TAF: fehlend

Wetterbeobachtungen und Prognosen von mehr als 4000 Flughäfen (METAR und TAF Bericht).

Die verfügbaren Stationen werden durch gelbe und rote Markierungen auf der Karte dargestellt.

Führen Sie die Maus auf sie, um den Namen der Station zu sehen.

Darauf klicken, um die Beobachtung von Wetterbeobachtungen und Prognosen zu sehen.

Um die Karte zu ändern : klicken Sie auf den grünen Tasten mit einem schwarzen Kreuz Zum Vergrößern, auf den grünen Button mit einem Gedankenstrich zu verkleinern, oder auf die grünen Pfeile für benachbarte Karten.


METAR-TAF: